Time;durP1;ratioP1;P1;durP2;ratioP2;P2;SDS_P1;SDS_P2;PMS_P1;PMS_P2;Temp;Humidity;BMP_temperature;BMP_pressure;BME280_temperature;BME280_humidity;BME280_pressure;Samples;Min_cycle;Max_cycle;Signal;HPM_P1;HPM_P2
2023/01/31 00:01:21;;;;;;;33.30;4.45;;;;;;;3.97;100.00;101288.47;5082675;28;20036;-72
2023/01/31 00:03:47;;;;;;;38.10;4.53;;;;;;;3.91;100.00;101280.00;5082649;28;20046;-72
2023/01/31 00:06:17;;;;;;;50.47;5.13;;;;;;;3.79;100.00;101297.81;5097776;28;20089;-72
2023/01/31 00:08:43;;;;;;;42.03;4.28;;;;;;;3.81;100.00;101296.72;5092386;28;20028;-72
2023/01/31 00:11:09;;;;;;;51.95;4.95;;;;;;;3.83;100.00;101299.28;5073035;28;20039;-72
2023/01/31 00:13:35;;;;;;;41.30;4.55;;;;;;;3.74;100.00;101305.28;5089054;28;20024;-72
2023/01/31 00:16:01;;;;;;;46.95;5.15;;;;;;;3.78;100.00;101290.69;5076215;28;20127;-73
2023/01/31 00:18:27;;;;;;;40.55;5.28;;;;;;;3.77;100.00;101294.34;5091208;28;20019;-73
2023/01/31 00:20:53;;;;;;;39.53;5.82;;;;;;;3.75;100.00;101312.34;5065216;28;20115;-72
2023/01/31 00:23:18;;;;;;;40.92;5.38;;;;;;;3.71;100.00;101300.97;5084061;28;20017;-73
2023/01/31 00:25:43;;;;;;;46.72;6.57;;;;;;;3.61;100.00;101293.69;5065707;28;20499;-73
2023/01/31 00:28:09;;;;;;;41.35;4.97;;;;;;;3.51;100.00;101299.63;5085378;28;20380;-73
2023/01/31 00:30:35;;;;;;;26.23;4.03;;;;;;;3.67;100.00;101309.34;5065780;28;20024;-73
2023/01/31 00:33:01;;;;;;;33.35;3.88;;;;;;;3.71;100.00;101321.53;5075300;28;20027;-72
2023/01/31 00:35:27;;;;;;;21.63;3.53;;;;;;;3.81;100.00;101309.25;5065528;28;20480;-73
2023/01/31 00:37:52;;;;;;;29.45;3.80;;;;;;;3.74;100.00;101322.22;5086557;28;20059;-72
2023/01/31 00:40:18;;;;;;;33.92;5.15;;;;;;;3.89;100.00;101325.66;5068574;28;20039;-73
2023/01/31 00:42:44;;;;;;;29.98;4.82;;;;;;;3.72;100.00;101324.16;5086314;28;20028;-73
2023/01/31 00:45:10;;;;;;;29.45;3.65;;;;;;;3.97;100.00;101327.81;5070717;28;20069;-73
2023/01/31 00:47:36;;;;;;;37.90;4.32;;;;;;;4.03;100.00;101338.13;5059480;28;20048;-73
2023/01/31 00:50:02;;;;;;;31.90;4.85;;;;;;;3.93;100.00;101332.53;5080396;28;20039;-73
2023/01/31 00:52:27;;;;;;;29.80;4.50;;;;;;;3.87;100.00;101338.31;5077157;28;20039;-74
2023/01/31 00:54:53;;;;;;;32.90;4.55;;;;;;;3.64;100.00;101341.66;5080367;28;20036;-74
2023/01/31 00:57:19;;;;;;;34.45;4.60;;;;;;;3.45;100.00;101352.72;5094423;28;20043;-74
2023/01/31 00:59:44;;;;;;;49.63;6.07;;;;;;;3.18;100.00;101344.69;5076396;28;20024;-75
2023/01/31 01:02:09;;;;;;;35.25;5.07;;;;;;;3.10;100.00;101352.34;5077295;28;20040;-75
2023/01/31 01:04:35;;;;;;;48.55;5.03;;;;;;;2.98;100.00;101343.28;5071725;28;20051;-75
2023/01/31 01:07:00;;;;;;;28.50;4.13;;;;;;;3.11;100.00;101343.38;5056316;28;20198;-75
2023/01/31 01:09:25;;;;;;;42.15;5.97;;;;;;;3.00;100.00;101336.06;5094252;28;20023;-75
2023/01/31 01:11:51;;;;;;;27.88;4.20;;;;;;;3.00;100.00;101336.06;5085824;28;20086;-75
2023/01/31 01:14:16;;;;;;;36.88;4.40;;;;;;;2.97;100.00;101330.88;5064390;28;20027;-75
2023/01/31 01:16:42;;;;;;;39.72;4.10;;;;;;;2.92;100.00;101328.47;5068609;28;20031;-75
2023/01/31 01:19:12;;;;;;;28.00;4.88;;;;;;;2.94;100.00;101331.94;5073093;28;20114;-75
2023/01/31 01:21:40;;;;;;;27.25;3.78;;;;;;;2.91;100.00;101348.16;5075507;28;20032;-75
2023/01/31 01:24:11;;;;;;;33.35;4.88;;;;;;;2.88;100.00;101345.69;5094941;28;20055;-76
2023/01/31 01:26:36;;;;;;;24.58;3.15;;;;;;;3.01;100.00;101336.91;5074971;28;20032;-75
2023/01/31 01:29:03;;;;;;;21.95;3.53;;;;;;;2.98;100.00;101344.16;5078644;28;20385;-75
2023/01/31 01:31:29;;;;;;;32.97;3.05;;;;;;;3.07;100.00;101331.16;5086363;28;20027;-75
2023/01/31 01:33:59;;;;;;;25.92;4.05;;;;;;;2.99;100.00;101329.81;5076973;28;20020;-75
2023/01/31 01:36:26;;;;;;;34.40;4.55;;;;;;;2.82;100.00;101338.06;5075058;28;20024;-75
2023/01/31 01:38:52;;;;;;;24.50;2.67;;;;;;;2.81;100.00;101336.34;5076904;28;20070;-75
2023/01/31 01:41:18;;;;;;;28.23;3.13;;;;;;;2.86;100.00;101334.22;5067136;28;20601;-74
2023/01/31 01:43:50;;;;;;;20.77;3.33;;;;;;;2.86;100.00;101344.91;5077950;28;20050;-75
2023/01/31 01:46:30;;;;;;;;;;;;;;;2.92;100.00;101344.53;5075008;28;20028;-75
2023/01/31 01:49:02;;;;;;;33.83;3.75;;;;;;;3.04;100.00;101337.53;5068744;28;19931;-75
2023/01/31 01:51:31;;;;;;;27.80;3.63;;;;;;;3.05;100.00;101338.41;5064333;28;20039;-75
2023/01/31 01:54:02;;;;;;;48.38;3.92;;;;;;;3.07;100.00;101344.53;5072859;28;20085;-75
2023/01/31 01:56:35;;;;;;;19.20;3.00;;;;;;;3.02;100.00;101343.97;5068049;28;20045;-75
2023/01/31 01:59:06;;;;;;;23.45;3.38;;;;;;;3.07;100.00;101336.50;5076434;28;20019;-75
2023/01/31 02:01:33;;;;;;;;;;;;;;;3.16;100.00;101342.13;5068542;28;20044;-75
2023/01/31 02:03:59;;;;;;;41.70;4.32;;;;;;;3.09;100.00;101339.94;5076295;28;19908;-75
2023/01/31 02:06:25;;;;;;;29.42;4.13;;;;;;;3.13;100.00;101346.78;5075233;28;20028;-75
2023/01/31 02:08:51;;;;;;;30.45;4.50;;;;;;;3.21;100.00;101360.56;5076474;28;20024;-75
2023/01/31 02:11:22;;;;;;;41.05;4.68;;;;;;;2.95;100.00;101349.69;5075601;28;20063;-75
2023/01/31 02:13:50;;;;;;;48.72;4.35;;;;;;;3.06;100.00;101353.50;5076340;28;20107;-74
2023/01/31 02:16:15;;;;;;;40.40;5.05;;;;;;;3.12;100.00;101355.78;5077050;28;20028;-75
2023/01/31 02:18:42;;;;;;;43.25;5.88;;;;;;;3.18;100.00;101350.03;5073896;28;20047;-75
2023/01/31 02:21:52;;;;;;;45.80;5.93;;;;;;;3.16;100.00;101359.97;5075243;28;20066;-74
2023/01/31 02:24:21;;;;;;;45.40;5.35;;;;;;;3.20;100.00;101358.84;5076457;28;20119;-76
2023/01/31 02:27:14;;;;;;;34.50;4.40;;;;;;;3.39;100.00;101375.44;5074958;28;20099;-74
2023/01/31 02:29:48;;;;;;;50.83;5.13;;;;;;;3.38;100.00;101362.13;5087612;28;20542;-74
2023/01/31 02:32:29;;;;;;;44.03;4.95;;;;;;;3.51;100.00;101358.53;5064743;28;20036;-74
2023/01/31 02:35:22;;;;;;;38.97;6.03;;;;;;;3.59;100.00;101360.72;5073472;28;20062;-74
2023/01/31 02:38:01;;;;;;;55.47;4.95;;;;;;;3.41;100.00;101373.50;5067173;28;20078;-74
2023/01/31 02:40:32;;;;;;;54.28;6.00;;;;;;;3.54;100.00;101369.06;5084290;28;20016;-74
2023/01/31 02:43:11;;;;;;;41.63;5.85;;;;;;;3.51;100.00;101373.75;5093229;28;20043;-74
2023/01/31 02:46:08;;;;;;;61.17;7.40;;;;;;;3.49;100.00;101371.16;5060049;28;20047;-74
2023/01/31 02:48:52;;;;;;;56.72;6.10;;;;;;;3.59;100.00;101370.59;5058520;28;20426;-74
2023/01/31 02:51:26;;;;;;;42.15;5.22;;;;;;;3.63;100.00;101377.44;5073456;28;20043;-75
2023/01/31 02:54:17;;;;;;;43.88;5.55;;;;;;;3.65;100.00;101375.50;5059194;28;20020;-75
2023/01/31 02:56:45;;;;;;;38.47;6.57;;;;;;;3.44;100.00;101378.63;5083832;28;20038;-75
2023/01/31 02:59:25;;;;;;;37.65;5.38;;;;;;;3.56;100.00;101376.13;5092395;28;20032;-75
2023/01/31 03:01:58;;;;;;;44.88;5.53;;;;;;;3.47;100.00;101381.13;5082798;28;20122;-75
2023/01/31 03:04:23;;;;;;;42.28;5.20;;;;;;;3.49;100.00;101376.53;5090437;28;20388;-74
2023/01/31 03:07:12;;;;;;;40.05;5.47;;;;;;;3.54;100.00;101374.41;5069756;28;20122;-74
2023/01/31 03:09:46;;;;;;;49.55;4.97;;;;;;;3.55;100.00;101372.59;5058451;28;20046;-74
2023/01/31 03:12:20;;;;;;;41.38;4.05;;;;;;;3.46;100.00;101382.09;5075762;28;20093;-74
2023/01/31 03:15:05;;;;;;;35.97;4.57;;;;;;;3.46;100.00;101366.03;5092149;28;20039;-75
2023/01/31 03:17:56;;;;;;;33.17;5.07;;;;;;;3.43;100.00;101373.38;5065482;28;20092;-75
2023/01/31 03:20:43;;;;;;;42.93;4.90;;;;;;;3.42;100.00;101369.84;5083817;28;20105;-74
2023/01/31 03:23:21;;;;;;;50.67;5.55;;;;;;;3.45;100.00;101363.44;5068911;28;20324;-75
2023/01/31 03:25:48;;;;;;;37.17;4.13;;;;;;;3.50;100.00;101351.47;5068300;28;20032;-75
2023/01/31 03:28:19;;;;;;;36.92;4.93;;;;;;;3.57;100.00;101372.47;5066075;28;20043;-75
2023/01/31 03:30:55;;;;;;;37.92;4.57;;;;;;;3.43;100.00;101355.50;5073137;28;20150;-75
2023/01/31 03:33:50;;;;;;;32.85;3.83;;;;;;;3.46;100.00;101333.91;5091084;28;20039;-75
2023/01/31 03:36:40;;;;;;;37.25;4.80;;;;;;;3.50;100.00;101340.75;5088969;28;20044;-75
2023/01/31 03:39:23;;;;;;;53.25;4.60;;;;;;;3.67;100.00;101341.47;5070734;28;20032;-74
2023/01/31 03:42:06;;;;;;;43.67;4.38;;;;;;;3.45;100.00;101342.88;5084866;28;20039;-74
2023/01/31 03:45:05;;;;;;;28.92;5.35;;;;;;;3.52;100.00;101338.88;5065790;28;20030;-74
2023/01/31 03:47:44;;;;;;;37.17;4.80;;;;;;;3.52;100.00;101338.88;5072855;28;20040;-75
2023/01/31 03:50:22;;;;;;;34.25;4.85;;;;;;;3.56;100.00;101362.75;5065480;28;20028;-75
2023/01/31 03:52:53;;;;;;;40.85;5.20;;;;;;;3.58;100.00;101359.00;5082624;28;20039;-75
2023/01/31 03:55:26;;;;;;;47.03;7.35;;;;;;;3.38;100.00;101357.63;5056485;28;20016;-75
2023/01/31 03:57:54;;;;;;;44.33;5.95;;;;;;;3.51;100.00;101353.19;5081485;28;20028;-75
2023/01/31 04:00:23;;;;;;;51.83;5.45;;;;;;;3.56;100.00;101349.34;5073424;28;20028;-75
2023/01/31 04:03:20;;;;;;;45.33;5.78;;;;;;;3.58;100.00;101348.28;5073523;28;20028;-75
2023/01/31 04:05:47;;;;;;;46.05;5.20;;;;;;;3.65;100.00;101344.25;5090848;28;20110;-75
2023/01/31 04:08:13;;;;;;;37.38;5.68;;;;;;;3.86;100.00;101357.16;5073370;28;20035;-75
2023/01/31 04:10:39;;;;;;;38.05;5.50;;;;;;;3.86;100.00;101352.66;5074921;28;20020;-75
2023/01/31 04:13:05;;;;;;;38.95;6.25;;;;;;;3.57;100.00;101361.78;5086903;28;20028;-75
2023/01/31 04:15:30;;;;;;;41.08;6.18;;;;;;;3.48;100.00;101369.47;5069018;28;20472;-73
2023/01/31 04:17:55;;;;;;;52.75;5.28;;;;;;;3.67;100.00;101357.53;5068581;28;20061;-76
2023/01/31 04:20:21;;;;;;;49.90;6.10;;;;;;;3.63;100.00;101372.94;5067018;28;20476;-74
2023/01/31 04:22:46;;;;;;;44.50;5.40;;;;;;;3.41;100.00;101346.72;5070342;28;20039;-75
2023/01/31 04:25:12;;;;;;;31.67;5.15;;;;;;;3.41;100.00;101352.09;5094037;28;20028;-75
2023/01/31 04:27:38;;;;;;;46.53;6.15;;;;;;;3.45;100.00;101345.56;5072157;28;20508;-75
2023/01/31 04:30:04;;;;;;;47.17;6.45;;;;;;;3.40;100.00;101333.47;5063588;28;20035;-75
2023/01/31 04:32:30;;;;;;;53.05;5.68;;;;;;;3.63;100.00;101337.28;5073290;28;20040;-75
2023/01/31 04:34:55;;;;;;;44.40;6.72;;;;;;;3.52;100.00;101338.88;5089678;28;20027;-75
2023/01/31 04:37:20;;;;;;;60.08;5.38;;;;;;;3.54;100.00;101326.22;5068186;28;20043;-75
2023/01/31 04:39:45;;;;;;;59.35;6.90;;;;;;;3.47;100.00;101335.63;5076807;28;20034;-74
2023/01/31 04:42:11;;;;;;;50.83;7.03;;;;;;;3.66;100.00;101331.72;5077539;28;20032;-74
2023/01/31 04:44:36;;;;;;;53.92;5.25;;;;;;;3.52;100.00;101344.22;5069267;28;20042;-74
2023/01/31 04:47:02;;;;;;;42.88;6.45;;;;;;;3.58;100.00;101336.72;5094591;28;20044;-74
2023/01/31 04:49:27;;;;;;;49.30;6.07;;;;;;;3.61;100.00;101347.22;5065230;28;20058;-74
2023/01/31 04:51:52;;;;;;;49.35;5.88;;;;;;;3.52;100.00;101346.91;5055351;28;20055;-74
2023/01/31 04:54:18;;;;;;;58.65;5.72;;;;;;;3.63;100.00;101345.31;5073616;28;20035;-75
2023/01/31 04:56:43;;;;;;;52.40;7.32;;;;;;;3.54;100.00;101346.78;5067414;28;20051;-75
2023/01/31 04:59:09;;;;;;;61.92;6.63;;;;;;;3.60;100.00;101334.81;5076792;28;20055;-75
2023/01/31 05:01:34;;;;;;;65.68;6.65;;;;;;;3.64;100.00;101341.66;5075215;28;20036;-75
2023/01/31 05:03:59;;;;;;;52.65;6.13;;;;;;;3.80;100.00;101342.38;5076755;28;20119;-75
2023/01/31 05:06:25;;;;;;;65.30;7.30;;;;;;;3.62;100.00;101348.94;5056218;28;20127;-75
2023/01/31 05:08:53;;;;;;;45.33;5.75;;;;;;;3.47;100.00;101350.81;5065546;28;20103;-75
2023/01/31 05:11:19;;;;;;;49.55;7.53;;;;;;;3.54;100.00;101363.69;5065173;28;20040;-75
2023/01/31 05:13:44;;;;;;;41.53;5.13;;;;;;;3.58;100.00;101347.41;5090443;28;20051;-74
2023/01/31 05:16:11;;;;;;;50.45;7.93;;;;;;;3.63;100.00;101343.47;5056655;28;20044;-75
2023/01/31 05:18:37;;;;;;;55.90;6.50;;;;;;;3.52;100.00;101344.22;5063954;28;20377;-75
2023/01/31 05:21:04;;;;;;;48.80;6.57;;;;;;;3.59;100.00;101333.09;5088502;28;20481;-74
2023/01/31 05:23:30;;;;;;;50.30;5.95;;;;;;;3.68;100.00;101333.34;5094631;28;20031;-74
2023/01/31 05:25:55;;;;;;;54.28;6.28;;;;;;;3.71;100.00;101332.25;5075209;28;20039;-74
2023/01/31 05:28:22;;;;;;;48.55;5.82;;;;;;;3.87;100.00;101327.59;5074570;28;20032;-74
2023/01/31 05:30:48;;;;;;;43.35;5.97;;;;;;;3.84;100.00;101327.78;5068372;28;20028;-74
2023/01/31 05:33:13;;;;;;;57.33;5.85;;;;;;;3.73;100.00;101331.22;5093015;28;20031;-74
2023/01/31 05:35:40;;;;;;;37.40;5.07;;;;;;;3.80;100.00;101310.22;5075823;28;20031;-73
2023/01/31 05:38:06;;;;;;;39.67;5.82;;;;;;;3.69;100.00;101323.47;5075864;28;20028;-74
2023/01/31 05:40:32;;;;;;;52.80;6.85;;;;;;;3.71;100.00;101310.84;5075626;28;20115;-74
2023/01/31 05:42:59;;;;;;;39.67;6.53;;;;;;;3.65;100.00;101311.25;5075758;28;20032;-73
2023/01/31 05:45:26;;;;;;;57.90;7.25;;;;;;;3.77;100.00;101299.72;5094328;28;20028;-73
2023/01/31 05:47:51;;;;;;;63.38;6.97;;;;;;;3.74;100.00;101300.78;5075345;28;20056;-72
2023/01/31 05:50:17;;;;;;;47.53;6.70;;;;;;;3.70;100.00;101298.41;5094206;28;20035;-72
2023/01/31 05:52:42;;;;;;;52.33;7.55;;;;;;;3.76;100.00;101293.50;5093676;28;20032;-72
2023/01/31 05:55:08;;;;;;;53.67;7.25;;;;;;;3.76;100.00;101292.63;5076250;28;20455;-73
2023/01/31 05:57:33;;;;;;;58.53;8.60;;;;;;;3.80;100.00;101299.50;5075653;28;20467;-73
2023/01/31 05:59:59;;;;;;;58.75;7.88;;;;;;;3.80;100.00;101291.47;5075909;28;20024;-73
2023/01/31 06:02:25;;;;;;;46.08;7.03;;;;;;;3.90;100.00;101300.59;5075148;28;20392;-73
2023/01/31 06:04:50;;;;;;;94.18;8.27;;;;;;;3.87;100.00;101295.44;5076488;28;20020;-73
2023/01/31 06:07:16;;;;;;;63.42;6.80;;;;;;;3.88;100.00;101305.19;5074604;28;20043;-73
2023/01/31 06:09:41;;;;;;;58.20;6.53;;;;;;;3.95;100.00;101293.09;5075188;28;20043;-73
2023/01/31 06:12:14;;;;;;;63.03;7.35;;;;;;;3.87;100.00;101300.81;5074841;28;20028;-73
2023/01/31 06:14:39;;;;;;;55.65;7.70;;;;;;;3.83;100.00;101299.28;5075982;28;20460;-73
2023/01/31 06:17:05;;;;;;;36.90;5.25;;;;;;;3.89;100.00;101288.16;5074249;28;20032;-73
2023/01/31 06:19:30;;;;;;;46.97;5.85;;;;;;;4.01;100.00;101287.31;5093638;28;20119;-73
2023/01/31 06:21:55;;;;;;;42.33;6.38;;;;;;;3.93;100.00;101284.31;5092082;28;20032;-73
2023/01/31 06:24:21;;;;;;;67.03;6.80;;;;;;;3.92;100.00;101282.59;5075920;28;20074;-73
2023/01/31 06:26:46;;;;;;;49.63;7.80;;;;;;;3.86;100.00;101266.97;5075215;28;20040;-73
2023/01/31 06:29:12;;;;;;;67.70;7.35;;;;;;;3.95;100.00;101271.66;5076016;28;20119;-73
2023/01/31 06:31:37;;;;;;;57.90;6.57;;;;;;;3.95;100.00;101282.38;5093044;28;20103;-73
2023/01/31 06:34:02;;;;;;;77.30;9.68;;;;;;;3.95;100.00;101271.66;5075454;28;20032;-73
2023/01/31 06:36:30;;;;;;;63.92;7.40;;;;;;;4.05;100.00;101283.47;5075199;28;20032;-72
2023/01/31 06:38:56;;;;;;;56.97;8.18;;;;;;;4.03;100.00;101269.31;5076069;28;20039;-72
2023/01/31 06:41:21;;;;;;;49.50;5.80;;;;;;;4.11;100.00;101265.22;5091693;28;20036;-72
2023/01/31 06:43:47;;;;;;;68.38;8.15;;;;;;;4.01;100.00;101292.69;5093966;28;20035;-75
2023/01/31 06:46:13;;;;;;;49.72;6.18;;;;;;;4.04;100.00;101260.34;5074903;28;20496;-73
2023/01/31 06:48:38;;;;;;;50.63;6.38;;;;;;;4.04;100.00;101259.44;5075307;28;20025;-73
2023/01/31 06:51:04;;;;;;;58.22;6.78;;;;;;;4.06;100.00;101253.03;5074365;28;20039;-73
2023/01/31 06:53:30;;;;;;;57.65;8.20;;;;;;;4.01;100.00;101260.53;5093325;28;20036;-73
2023/01/31 06:55:55;;;;;;;38.05;6.30;;;;;;;3.97;100.00;101263.50;5092476;28;20055;-73
2023/01/31 06:58:20;;;;;;;45.28;6.68;;;;;;;3.98;100.00;101243.81;5093180;28;20077;-73
2023/01/31 07:00:46;;;;;;;63.17;7.97;;;;;;;4.03;100.00;101231.78;5092310;28;20028;-73
2023/01/31 07:03:12;;;;;;;75.05;9.95;;;;;;;3.94;100.00;101237.81;5074589;28;20035;-73
2023/01/31 07:05:37;;;;;;;43.00;5.72;;;;;;;4.03;100.00;101236.31;5074633;28;20036;-73
2023/01/31 07:08:03;;;;;;;42.50;5.22;;;;;;;4.22;100.00;101230.50;5091215;28;20020;-72
2023/01/31 07:10:28;;;;;;;46.53;6.28;;;;;;;4.09;100.00;101231.38;5074982;28;20081;-74
2023/01/31 07:12:54;;;;;;;54.67;6.72;;;;;;;4.07;100.00;101206.50;5092377;28;20036;-73
2023/01/31 07:15:19;;;;;;;48.42;7.95;;;;;;;4.16;100.00;101214.84;5075014;28;20051;-73
2023/01/31 07:17:44;;;;;;;57.70;7.10;;;;;;;4.08;100.00;101212.72;5091007;28;20024;-73
2023/01/31 07:20:10;;;;;;;57.03;7.20;;;;;;;4.07;100.00;101195.78;5075626;28;20031;-74
2023/01/31 07:22:36;;;;;;;48.60;7.15;;;;;;;4.05;100.00;101191.53;5073667;28;20032;-73
2023/01/31 07:25:01;;;;;;;37.80;6.18;;;;;;;4.05;100.00;101187.03;5074238;28;20062;-73
2023/01/31 07:27:27;;;;;;;56.20;7.03;;;;;;;4.21;100.00;101176.06;5073573;28;20116;-73
2023/01/31 07:29:52;;;;;;;58.25;7.18;;;;;;;4.14;100.00;101198.91;5091763;28;20024;-73
2023/01/31 07:32:17;;;;;;;41.25;5.65;;;;;;;4.17;100.00;101173.69;5091939;28;20542;-73
2023/01/31 07:34:43;;;;;;;48.47;7.15;;;;;;;4.13;100.00;101172.22;5074870;28;20077;-71
2023/01/31 07:37:08;;;;;;;46.92;7.55;;;;;;;4.08;100.00;101162.69;5068646;28;20024;-67
2023/01/31 07:39:33;;;;;;;41.50;6.25;;;;;;;4.11;100.00;101158.06;5072925;28;20028;-67
2023/01/31 07:41:59;;;;;;;58.65;7.40;;;;;;;4.29;100.00;101156.72;5091474;28;20109;-68
2023/01/31 07:44:25;;;;;;;47.53;7.70;;;;;;;4.26;100.00;101146.25;5072815;28;20047;-68
2023/01/31 07:46:53;;;;;;;43.42;6.93;;;;;;;4.40;100.00;101154.13;5082825;28;20027;-68
2023/01/31 07:49:19;;;;;;;52.45;9.68;;;;;;;4.24;100.00;101158.91;5073800;28;20024;-68
2023/01/31 07:51:44;;;;;;;49.67;8.45;;;;;;;4.39;100.00;101156.94;5056059;28;20051;-68
2023/01/31 07:54:10;;;;;;;43.97;8.88;;;;;;;4.38;100.00;101156.09;5074197;28;20032;-68
2023/01/31 07:56:36;;;;;;;51.65;8.68;;;;;;;4.28;100.00;101133.59;5083724;28;20032;-67
2023/01/31 07:59:02;;;;;;;36.08;6.97;;;;;;;4.30;100.00;101137.88;5058956;28;20111;-68
2023/01/31 08:04:14;;;;;;;55.88;10.00;;;;;;;4.54;100.00;101151.31;5088601;28;20499;-68
2023/01/31 08:06:42;;;;;;;59.05;10.63;;;;;;;4.55;100.00;101136.91;5081458;28;20036;-67
2023/01/31 08:09:08;;;;;;;70.88;12.68;;;;;;;4.50;100.00;101144.47;5072779;28;20053;-67
2023/01/31 08:11:33;;;;;;;51.20;9.98;;;;;;;4.49;100.00;101121.28;5055800;28;20127;-67
2023/01/31 08:13:59;;;;;;;71.85;11.23;;;;;;;4.48;100.00;101118.72;5064657;28;20063;-67
2023/01/31 08:16:25;;;;;;;50.92;9.82;;;;;;;4.57;100.00;101105.50;5070617;28;20036;-67
2023/01/31 08:18:51;;;;;;;49.90;10.13;;;;;;;4.71;100.00;101109.00;5081851;28;20024;-68
2023/01/31 08:21:17;;;;;;;64.30;10.38;;;;;;;4.59;100.00;101106.25;5069829;28;20123;-68
2023/01/31 08:23:43;;;;;;;65.60;9.73;;;;;;;4.55;100.00;101110.09;5074400;28;20542;-68
2023/01/31 08:26:16;;;;;;;40.65;8.88;;;;;;;4.72;100.00;101110.69;5088531;28;20036;-68
2023/01/31 08:28:43;;;;;;;49.85;9.00;;;;;;;4.66;100.00;101105.78;5066630;28;20060;-68
2023/01/31 08:31:17;;;;;;;68.32;11.35;;;;;;;4.68;100.00;101103.84;5067446;28;20063;-69
2023/01/31 08:33:42;;;;;;;49.90;10.43;;;;;;;4.69;100.00;101102.84;5065103;28;20410;-69
2023/01/31 08:36:13;;;;;;;54.50;11.43;;;;;;;4.54;100.00;101113.75;5056149;28;20123;-67
2023/01/31 08:38:39;;;;;;;48.75;10.68;;;;;;;4.53;100.00;101095.13;5063354;28;20055;-67
2023/01/31 08:41:04;;;;;;;62.47;11.75;;;;;;;4.59;100.00;101084.78;5060762;28;20497;-67
2023/01/31 08:43:31;;;;;;;49.60;8.98;;;;;;;4.66;100.00;101092.38;5083183;28;20035;-68
2023/01/31 08:45:56;;;;;;;65.45;10.38;;;;;;;4.58;100.00;101095.63;5090427;28;20052;-67
2023/01/31 08:48:22;;;;;;;45.83;8.85;;;;;;;4.63;100.00;101086.28;5082052;28;20055;-68
2023/01/31 08:50:47;;;;;;;53.22;10.27;;;;;;;4.63;100.00;101075.56;5087091;28;20015;-69
2023/01/31 08:53:13;;;;;;;57.92;10.02;;;;;;;4.78;100.00;101067.31;5069093;28;20069;-68
2023/01/31 08:55:38;;;;;;;56.42;11.60;;;;;;;4.73;100.00;101069.47;5065534;28;20036;-69
2023/01/31 08:58:04;;;;;;;58.03;10.32;;;;;;;4.62;100.00;101081.84;5074821;28;20025;-69
2023/01/31 09:00:30;;;;;;;57.17;9.07;;;;;;;4.75;100.00;101029.97;5056075;28;20033;-67
2023/01/31 09:02:59;;;;;;;61.22;9.88;;;;;;;4.63;100.00;101064.81;5077946;28;20044;-67
2023/01/31 09:05:27;;;;;;;66.30;11.60;;;;;;;4.67;100.00;101045.81;5078107;28;20025;-67
2023/01/31 09:07:53;;;;;;;40.70;10.48;;;;;;;4.72;100.00;101046.31;5060123;28;20106;-68
2023/01/31 09:10:19;;;;;;;56.83;10.43;;;;;;;4.69;100.00;101030.44;5081626;28;20020;-68
2023/01/31 09:12:46;;;;;;;54.70;10.75;;;;;;;4.74;100.00;101017.53;5085340;28;20048;-67
2023/01/31 09:15:11;;;;;;;51.05;11.10;;;;;;;4.70;100.00;101010.72;5072618;28;20086;-68
2023/01/31 09:17:38;;;;;;;60.17;11.32;;;;;;;4.74;100.00;101010.34;5062386;28;20040;-68
2023/01/31 09:20:05;;;;;;;51.25;10.70;;;;;;;4.71;100.00;101023.16;5090544;28;20085;-68
2023/01/31 09:22:34;;;;;;;49.70;9.93;;;;;;;4.70;100.00;101006.22;5069475;28;20036;-68
2023/01/31 09:25:00;;;;;;;52.65;10.20;;;;;;;4.72;100.00;100987.31;5073095;28;20107;-68
2023/01/31 09:27:27;;;;;;;49.15;9.45;;;;;;;4.74;100.00;101012.19;5092208;28;20066;-68
2023/01/31 09:29:52;;;;;;;54.40;10.43;;;;;;;4.80;100.00;100974.16;5061976;28;20019;-68
2023/01/31 09:32:19;;;;;;;42.60;8.80;;;;;;;4.78;100.00;100986.84;5078261;28;20100;-68
2023/01/31 09:34:46;;;;;;;53.85;9.77;;;;;;;4.84;100.00;100970.28;5070671;28;20036;-68
2023/01/31 09:37:11;;;;;;;52.40;10.13;;;;;;;4.89;100.00;100968.94;5101848;28;20035;-67
2023/01/31 09:39:36;;;;;;;39.08;10.57;;;;;;;4.83;100.00;100990.03;5095672;28;20019;-69
2023/01/31 09:42:32;;;;;;;63.40;11.00;;;;;;;4.78;100.00;100960.03;5087672;28;20047;-69
2023/01/31 09:45:04;;;;;;;46.08;10.57;;;;;;;4.93;100.00;100958.81;5066222;28;20036;-67
2023/01/31 09:47:35;;;;;;;;;;;;;;;4.76;100.00;100978.03;5093599;28;20047;-67
2023/01/31 09:50:26;;;;;;;51.57;10.47;;;;;;;4.71;100.00;100958.78;5073981;28;19956;-67
2023/01/31 09:52:52;;;;;;;48.50;11.98;;;;;;;4.60;100.00;100955.09;5079352;28;20382;-67
2023/01/31 09:55:30;;;;;;;46.22;12.02;;;;;;;4.57;100.00;100955.34;5068586;28;20038;-69
2023/01/31 09:58:19;;;;;;;50.20;12.73;;;;;;;4.61;100.00;100948.75;5067808;28;20040;-67
2023/01/31 10:00:56;;;;;;;45.42;13.00;;;;;;;4.53;100.00;100955.69;5084839;28;20023;-67
2023/01/31 10:03:31;;;;;;;49.55;12.98;;;;;;;4.60;100.00;100944.38;5076070;28;20037;-67
2023/01/31 10:06:27;;;;;;;45.90;11.93;;;;;;;4.69;100.00;100933.91;5083974;28;20035;-68
2023/01/31 10:09:06;;;;;;;31.38;11.75;;;;;;;4.62;100.00;100918.28;5071044;28;20495;-66
2023/01/31 10:11:46;;;;;;;47.83;13.07;;;;;;;4.57;100.00;100925.00;5093337;28;20070;-66
2023/01/31 10:14:25;;;;;;;52.78;12.18;;;;;;;4.62;100.00;100918.28;5055744;28;20075;-67
2023/01/31 10:17:08;;;;;;;53.53;16.20;;;;;;;4.51;100.00;100926.31;5066543;28;20046;-67
2023/01/31 10:19:41;;;;;;;60.33;15.68;;;;;;;4.58;100.00;100900.75;5069005;28;20058;-66
2023/01/31 10:22:11;;;;;;;55.88;17.15;;;;;;;4.60;100.00;100914.88;5072662;28;20043;-66
2023/01/31 10:24:43;;;;;;;47.75;15.27;;;;;;;4.57;100.00;100920.50;5060107;28;20050;-67
2023/01/31 10:27:15;;;;;;;;;;;;;;;4.63;100.00;100909.28;5082625;28;20043;-66
2023/01/31 10:29:51;;;;;;;53.47;15.88;;;;;;;4.69;100.00;100901.72;5068864;28;19908;-66
2023/01/31 10:32:27;;;;;;;50.45;16.08;;;;;;;4.80;100.00;100872.22;5076220;28;20038;-66
2023/01/31 10:34:58;;;;;;;50.90;16.27;;;;;;;4.74;100.00;100872.72;5067790;28;20036;-67
2023/01/31 10:37:36;;;;;;;43.80;16.63;;;;;;;4.76;100.00;100886.84;5075305;28;20395;-67
2023/01/31 10:40:11;;;;;;;49.28;16.20;;;;;;;4.72;100.00;100869.31;5082424;28;20016;-68
2023/01/31 10:42:38;;;;;;;50.22;16.20;;;;;;;4.77;100.00;100867.13;5090476;28;20493;-68
2023/01/31 10:45:06;;;;;;;71.20;18.52;;;;;;;4.81;100.00;100852.47;5082357;28;20030;-67
2023/01/31 10:47:35;;;;;;;50.95;17.63;;;;;;;4.83;100.00;100853.22;5079633;28;20029;-68
2023/01/31 10:50:11;;;;;;;46.55;16.50;;;;;;;4.83;100.00;100851.41;5077243;28;20024;-68
2023/01/31 10:52:56;;;;;;;49.08;16.65;;;;;;;4.92;100.00;100849.81;5030246;28;20048;-68
2023/01/31 10:55:32;;;;;;;67.80;21.02;;;;;;;4.89;100.00;100850.06;5060017;28;20036;-68
2023/01/31 10:57:58;;;;;;;58.00;19.40;;;;;;;4.82;100.00;100851.50;5080008;28;20058;-68
2023/01/31 11:00:30;;;;;;;41.58;14.10;;;;;;;4.90;100.00;100830.31;5077570;28;20023;-68
2023/01/31 11:02:57;;;;;;;59.15;17.92;;;;;;;4.90;100.00;100824.94;5066311;28;20127;-68
2023/01/31 11:05:26;;;;;;;52.90;17.30;;;;;;;4.99;100.00;100818.81;5061563;28;20107;-68
2023/01/31 11:07:52;;;;;;;51.95;16.08;;;;;;;4.98;100.00;100816.25;5052548;28;20045;-68
2023/01/31 11:10:28;;;;;;;40.20;15.18;;;;;;;5.04;100.00;100811.25;5057959;28;20031;-68
2023/01/31 11:13:06;;;;;;;40.60;15.10;;;;;;;5.02;100.00;100802.50;5067977;28;20072;-68
2023/01/31 11:15:38;;;;;;;49.00;16.05;;;;;;;5.12;100.00;100835.63;5062010;28;20028;-68
2023/01/31 11:18:04;;;;;;;49.05;15.25;;;;;;;5.11;100.00;100833.94;5059331;28;20040;-70
2023/01/31 11:20:44;;;;;;;42.47;14.23;;;;;;;5.17;100.00;100849.53;5052290;28;20373;-68
2023/01/31 11:23:14;;;;;;;51.05;15.63;;;;;;;5.15;100.00;100830.03;5079277;28;20031;-69
2023/01/31 11:25:47;;;;;;;49.03;16.48;;;;;;;5.24;100.00;100816.84;5065456;28;20028;-67
2023/01/31 11:28:39;;;;;;;35.50;14.27;;;;;;;5.23;100.00;100821.34;5071094;28;20443;-68
2023/01/31 11:31:16;;;;;;;48.42;16.20;;;;;;;5.28;100.00;100813.78;5063873;28;20027;-68